Time;durP1;ratioP1;P1;durP2;ratioP2;P2;SDS_P1;SDS_P2;PMS_P1;PMS_P2;Temp;Humidity;BMP_temperature;BMP_pressure;BME280_temperature;BME280_humidity;BME280_pressure;Samples;Min_cycle;Max_cycle;Signal;HPM_P1;HPM_P2
2024/01/11 00:00:06;;;;;;;164.52;60.17;;;;;;;;;;5036008;28;20040;-57
2024/01/11 00:02:32;;;;;;;164.45;61.85;;;;;;;;;;5037251;28;20554;-58
2024/01/11 00:04:57;;;;;;;154.13;57.65;;;;;;;;;;5037717;28;20040;-60
2024/01/11 00:07:22;;;;;;;161.07;59.55;;;;;;;;;;5036555;28;20443;-58
2024/01/11 00:09:47;;;;;;;165.25;60.00;;;;;;;;;;5036063;28;20032;-57
2024/01/11 00:12:13;;;;;;;159.23;56.38;;;;;;;;;;5040235;28;20328;-58
2024/01/11 00:14:38;;;;;;;170.82;62.65;;;;;;;;;;5035868;28;20024;-58
2024/01/11 00:17:04;;;;;;;174.95;60.78;;;;;;;;;;5035989;28;20153;-59
2024/01/11 00:19:29;;;;;;;161.60;61.40;;;;;;;;;;5035486;28;20090;-58
2024/01/11 00:21:54;;;;;;;163.27;61.83;;;;;;;;;;5044805;28;20024;-59
2024/01/11 00:24:19;;;;;;;170.98;64.35;;;;;;;;;;5045921;28;20048;-59
2024/01/11 00:26:45;;;;;;;189.10;68.20;;;;;;;;;;5034676;28;20020;-59
2024/01/11 00:29:10;;;;;;;187.82;67.60;;;;;;;;;;5034184;28;20420;-58
2024/01/11 00:31:36;;;;;;;198.13;73.35;;;;;;;;;;5035479;28;20021;-56
2024/01/11 00:34:01;;;;;;;198.15;71.35;;;;;;;;;;5035082;28;20049;-57
2024/01/11 00:36:28;;;;;;;189.10;69.18;;;;;;;;;;5040912;28;20049;-59
2024/01/11 00:38:53;;;;;;;204.45;76.95;;;;;;;;;;5034015;28;20134;-58
2024/01/11 00:41:18;;;;;;;211.60;75.43;;;;;;;;;;5035902;28;20505;-56
2024/01/11 00:43:43;;;;;;;219.18;77.97;;;;;;;;;;5043274;28;20024;-55
2024/01/11 00:46:09;;;;;;;237.80;84.20;;;;;;;;;;5033869;28;20993;-57
2024/01/11 00:48:34;;;;;;;244.43;85.57;;;;;;;;;;5036735;28;20256;-58
2024/01/11 00:50:59;;;;;;;231.25;79.32;;;;;;;;;;5033727;28;20540;-56
2024/01/11 00:53:30;;;;;;;229.43;81.07;;;;;;;;;;5035297;28;20290;-57
2024/01/11 00:55:55;;;;;;;260.42;85.70;;;;;;;;;;5036390;28;21423;-57
2024/01/11 00:58:20;;;;;;;255.60;84.68;;;;;;;;;;5041150;28;20492;-59
2024/01/11 01:00:45;;;;;;;226.75;78.22;;;;;;;;;;5040364;28;20077;-55
2024/01/11 01:03:11;;;;;;;221.85;81.05;;;;;;;;;;5045776;28;20496;-56
2024/01/11 01:05:36;;;;;;;205.55;73.75;;;;;;;;;;5040797;28;20059;-58
2024/01/11 01:08:01;;;;;;;205.13;76.03;;;;;;;;;;5039399;28;20084;-58
2024/01/11 01:10:27;;;;;;;194.20;71.40;;;;;;;;;;5038590;28;20449;-57
2024/01/11 01:12:52;;;;;;;209.13;75.18;;;;;;;;;;5038949;28;20024;-56
2024/01/11 01:15:17;;;;;;;182.13;67.72;;;;;;;;;;5039624;28;20493;-59
2024/01/11 01:17:42;;;;;;;191.90;71.35;;;;;;;;;;5039964;28;20051;-59
2024/01/11 01:20:08;;;;;;;222.55;77.28;;;;;;;;;;5041209;28;20043;-58
2024/01/11 01:22:33;;;;;;;206.48;76.88;;;;;;;;;;5043840;28;22252;-58
2024/01/11 01:24:58;;;;;;;198.02;70.25;;;;;;;;;;5038111;28;20439;-56
2024/01/11 01:27:24;;;;;;;191.23;68.53;;;;;;;;;;5040720;28;22339;-57
2024/01/11 01:29:49;;;;;;;194.65;67.85;;;;;;;;;;5038773;28;20049;-58
2024/01/11 01:32:15;;;;;;;175.65;66.68;;;;;;;;;;5038840;28;20042;-59
2024/01/11 01:34:40;;;;;;;194.75;67.78;;;;;;;;;;5038235;28;20142;-58
2024/01/11 01:37:05;;;;;;;186.45;65.15;;;;;;;;;;5041234;28;20070;-54
2024/01/11 01:39:31;;;;;;;186.23;66.22;;;;;;;;;;5040937;28;20658;-58
2024/01/11 01:41:56;;;;;;;183.38;64.28;;;;;;;;;;5038501;28;20535;-57
2024/01/11 01:44:21;;;;;;;169.40;61.00;;;;;;;;;;5038111;28;20176;-59
2024/01/11 01:46:47;;;;;;;160.63;58.78;;;;;;;;;;5038316;28;20454;-57
2024/01/11 01:49:12;;;;;;;177.13;60.40;;;;;;;;;;5040351;28;20395;-57
2024/01/11 01:51:38;;;;;;;159.05;57.15;;;;;;;;;;5037150;28;21544;-58
2024/01/11 01:54:03;;;;;;;150.23;55.78;;;;;;;;;;5040545;28;20090;-59
2024/01/11 01:56:28;;;;;;;171.43;59.63;;;;;;;;;;5038359;28;20115;-59
2024/01/11 01:58:54;;;;;;;160.63;59.60;;;;;;;;;;5041298;28;20093;-57
2024/01/11 02:01:21;;;;;;;160.18;55.10;;;;;;;;;;5037928;28;20575;-60
2024/01/11 02:03:49;;;;;;;165.00;56.15;;;;;;;;;;5045070;28;20033;-58
2024/01/11 02:06:14;;;;;;;149.07;55.15;;;;;;;;;;5037971;28;20032;-57
2024/01/11 02:08:42;;;;;;;140.45;50.67;;;;;;;;;;5039789;28;20507;-56
2024/01/11 02:11:07;;;;;;;141.65;54.17;;;;;;;;;;5037974;28;20089;-57
2024/01/11 02:13:32;;;;;;;147.35;56.97;;;;;;;;;;5039456;28;20718;-59
2024/01/11 02:15:58;;;;;;;166.43;58.50;;;;;;;;;;5036928;28;20295;-57
2024/01/11 02:18:23;;;;;;;157.20;56.03;;;;;;;;;;5040074;28;20575;-58
2024/01/11 02:20:48;;;;;;;153.05;54.70;;;;;;;;;;5045882;28;20114;-58
2024/01/11 02:23:17;;;;;;;151.55;56.00;;;;;;;;;;5038954;28;20466;-56
2024/01/11 02:25:42;;;;;;;146.70;55.80;;;;;;;;;;5036514;28;22820;-59
2024/01/11 02:28:08;;;;;;;154.15;52.05;;;;;;;;;;5036564;28;20139;-59
2024/01/11 02:30:33;;;;;;;138.32;53.88;;;;;;;;;;5036523;28;20908;-56
2024/01/11 02:32:59;;;;;;;159.13;58.60;;;;;;;;;;5038380;28;20473;-56
2024/01/11 02:35:25;;;;;;;140.20;52.13;;;;;;;;;;5037842;28;20040;-59
2024/01/11 02:37:50;;;;;;;151.50;52.88;;;;;;;;;;5042523;28;20582;-58
2024/01/11 02:40:15;;;;;;;140.48;50.83;;;;;;;;;;5036465;28;20036;-58
2024/01/11 02:42:41;;;;;;;145.85;55.88;;;;;;;;;;5037921;28;20439;-57
2024/01/11 02:45:07;;;;;;;148.05;53.25;;;;;;;;;;5036386;28;20308;-56
2024/01/11 02:47:32;;;;;;;139.60;52.85;;;;;;;;;;5036877;28;20036;-58
2024/01/11 02:49:57;;;;;;;150.40;54.42;;;;;;;;;;5038916;28;20405;-59
2024/01/11 02:52:23;;;;;;;145.82;53.85;;;;;;;;;;5038317;28;20020;-60
2024/01/11 02:54:48;;;;;;;148.80;54.75;;;;;;;;;;5037892;28;20055;-56
2024/01/11 02:57:13;;;;;;;148.68;54.40;;;;;;;;;;5037830;28;20024;-58
2024/01/11 02:59:39;;;;;;;147.80;51.25;;;;;;;;;;5038033;28;20038;-59
2024/01/11 03:02:04;;;;;;;142.35;54.15;;;;;;;;;;5038682;28;20040;-58
2024/01/11 03:04:30;;;;;;;138.13;51.33;;;;;;;;;;5042106;28;20040;-57
2024/01/11 03:06:55;;;;;;;144.35;51.40;;;;;;;;;;5037620;28;20135;-59
2024/01/11 03:09:21;;;;;;;142.77;50.15;;;;;;;;;;5036844;28;20378;-53
2024/01/11 03:11:46;;;;;;;153.05;55.50;;;;;;;;;;5037775;28;20501;-57
2024/01/11 03:14:11;;;;;;;139.90;52.60;;;;;;;;;;5040130;28;20379;-59
2024/01/11 03:16:39;;;;;;;145.10;52.08;;;;;;;;;;5036268;28;20028;-57
2024/01/11 03:19:04;;;;;;;136.68;51.17;;;;;;;;;;5036379;28;20024;-55
2024/01/11 03:21:29;;;;;;;150.60;52.30;;;;;;;;;;5045754;28;20063;-57
2024/01/11 03:23:55;;;;;;;143.55;52.83;;;;;;;;;;5038431;28;20036;-58
2024/01/11 03:26:20;;;;;;;146.75;51.95;;;;;;;;;;5036624;28;20591;-58
2024/01/11 03:28:45;;;;;;;144.38;54.35;;;;;;;;;;5038675;28;20561;-58
2024/01/11 03:31:11;;;;;;;134.80;52.03;;;;;;;;;;5037337;28;20028;-58
2024/01/11 03:33:36;;;;;;;148.45;50.92;;;;;;;;;;5036937;28;20383;-56
2024/01/11 03:36:08;;;;;;;137.38;49.90;;;;;;;;;;5036962;28;20618;-57
2024/01/11 03:38:33;;;;;;;146.90;53.70;;;;;;;;;;5037265;28;20024;-55
2024/01/11 03:40:59;;;;;;;133.82;49.78;;;;;;;;;;5035747;28;20033;-55
2024/01/11 03:43:24;;;;;;;133.80;44.95;;;;;;;;;;5037151;28;20115;-57
2024/01/11 03:45:50;;;;;;;134.93;45.72;;;;;;;;;;5034504;28;20033;-58
2024/01/11 03:48:15;;;;;;;132.57;46.80;;;;;;;;;;5039091;28;20028;-57
2024/01/11 03:50:40;;;;;;;126.35;46.65;;;;;;;;;;5035976;28;20052;-58
2024/01/11 03:53:05;;;;;;;131.73;46.80;;;;;;;;;;5035725;28;20533;-58
2024/01/11 03:55:31;;;;;;;129.48;47.58;;;;;;;;;;5035530;28;20036;-57
2024/01/11 03:57:56;;;;;;;127.95;47.65;;;;;;;;;;5038573;28;20130;-58
2024/01/11 04:00:21;;;;;;;114.85;46.30;;;;;;;;;;5035861;28;20464;-55
2024/01/11 04:02:47;;;;;;;132.93;47.45;;;;;;;;;;5040990;28;20028;-58
2024/01/11 04:05:12;;;;;;;127.57;46.42;;;;;;;;;;5041012;28;20032;-57
2024/01/11 04:07:37;;;;;;;120.47;44.50;;;;;;;;;;5035444;28;20032;-60
2024/01/11 04:10:02;;;;;;;123.30;43.05;;;;;;;;;;5036421;28;20337;-57
2024/01/11 04:12:28;;;;;;;118.32;45.47;;;;;;;;;;5036231;28;20110;-59
2024/01/11 04:14:53;;;;;;;121.07;45.88;;;;;;;;;;5036505;28;20036;-58
2024/01/11 04:17:18;;;;;;;119.43;42.65;;;;;;;;;;5034508;28;20080;-59
2024/01/11 04:19:43;;;;;;;115.07;43.40;;;;;;;;;;5018890;28;20499;-59
2024/01/11 04:22:09;;;;;;;113.85;45.40;;;;;;;;;;5042631;28;20111;-56
2024/01/11 04:24:34;;;;;;;120.13;42.92;;;;;;;;;;5035067;28;20529;-55
2024/01/11 04:26:59;;;;;;;103.80;40.80;;;;;;;;;;5036638;28;20025;-59
2024/01/11 04:29:25;;;;;;;109.00;39.45;;;;;;;;;;5034876;28;20726;-58
2024/01/11 04:31:50;;;;;;;106.70;39.35;;;;;;;;;;5035214;28;20024;-55
2024/01/11 04:34:15;;;;;;;101.72;38.47;;;;;;;;;;5035765;28;20060;-58
2024/01/11 04:36:41;;;;;;;101.15;40.60;;;;;;;;;;5033168;28;20113;-56
2024/01/11 04:39:07;;;;;;;114.97;39.83;;;;;;;;;;5044233;28;20500;-57
2024/01/11 04:41:33;;;;;;;125.90;42.65;;;;;;;;;;5034989;28;20020;-56
2024/01/11 04:43:58;;;;;;;153.30;53.30;;;;;;;;;;5041572;28;20035;-55
2024/01/11 04:46:23;;;;;;;134.10;47.53;;;;;;;;;;5035587;28;20384;-57
2024/01/11 04:48:49;;;;;;;109.05;44.10;;;;;;;;;;5047904;28;20032;-58
2024/01/11 04:51:15;;;;;;;121.22;44.22;;;;;;;;;;5036536;28;20036;-58
2024/01/11 04:53:41;;;;;;;110.85;41.55;;;;;;;;;;5036386;28;20028;-57
2024/01/11 04:56:07;;;;;;;113.35;42.55;;;;;;;;;;5037581;28;21534;-56
2024/01/11 04:58:32;;;;;;;112.82;41.58;;;;;;;;;;5036251;28;20071;-58
2024/01/11 05:00:58;;;;;;;116.75;43.22;;;;;;;;;;5034247;28;20032;-54
2024/01/11 05:03:23;;;;;;;111.03;43.35;;;;;;;;;;5042843;28;20032;-56
2024/01/11 05:05:48;;;;;;;118.53;38.95;;;;;;;;;;5038022;28;20024;-56
2024/01/11 05:08:14;;;;;;;104.78;39.65;;;;;;;;;;5035734;28;20516;-56
2024/01/11 05:10:39;;;;;;;107.88;40.90;;;;;;;;;;5035727;28;20101;-56
2024/01/11 05:13:04;;;;;;;107.40;40.58;;;;;;;;;;5038007;28;20097;-58
2024/01/11 05:15:29;;;;;;;101.22;39.22;;;;;;;;;;5037168;28;20021;-59
2024/01/11 05:17:56;;;;;;;113.22;39.20;;;;;;;;;;5035995;28;20060;-56
2024/01/11 05:20:22;;;;;;;113.90;40.63;;;;;;;;;;5041109;28;20012;-57
2024/01/11 05:22:47;;;;;;;108.75;39.13;;;;;;;;;;5038281;28;22398;-58
2024/01/11 05:25:12;;;;;;;113.93;41.80;;;;;;;;;;5034906;28;20480;-59
2024/01/11 05:27:37;;;;;;;112.10;41.88;;;;;;;;;;5036303;28;20070;-57
2024/01/11 05:30:03;;;;;;;104.32;40.97;;;;;;;;;;5015985;28;20040;-55
2024/01/11 05:32:28;;;;;;;104.70;42.50;;;;;;;;;;5036062;28;20032;-56
2024/01/11 05:34:53;;;;;;;114.78;39.22;;;;;;;;;;5037457;28;20052;-60
2024/01/11 05:37:20;;;;;;;117.72;40.70;;;;;;;;;;5049088;28;20393;-59
2024/01/11 05:39:46;;;;;;;123.00;41.30;;;;;;;;;;5037450;28;20436;-55
2024/01/11 05:42:11;;;;;;;126.30;41.63;;;;;;;;;;5038196;28;20028;-58
2024/01/11 05:44:36;;;;;;;121.25;40.60;;;;;;;;;;5038785;28;20123;-59
2024/01/11 05:47:01;;;;;;;113.80;41.85;;;;;;;;;;5045764;28;20774;-56
2024/01/11 05:49:27;;;;;;;112.22;38.25;;;;;;;;;;5038411;28;20572;-58
2024/01/11 05:51:52;;;;;;;112.18;40.25;;;;;;;;;;5038755;28;20032;-59
2024/01/11 05:54:17;;;;;;;99.35;38.65;;;;;;;;;;5038400;28;20162;-56
2024/01/11 05:56:42;;;;;;;121.22;42.10;;;;;;;;;;5039613;28;20513;-58
2024/01/11 05:59:08;;;;;;;101.10;38.35;;;;;;;;;;5040341;28;20032;-58
2024/01/11 06:01:33;;;;;;;122.60;38.50;;;;;;;;;;5038993;28;20872;-58
2024/01/11 06:03:58;;;;;;;102.32;39.70;;;;;;;;;;5041232;28;20024;-58
2024/01/11 06:06:23;;;;;;;99.68;38.67;;;;;;;;;;5039548;28;20124;-58
2024/01/11 06:08:49;;;;;;;105.65;38.88;;;;;;;;;;5038564;28;20021;-58
2024/01/11 06:11:14;;;;;;;104.43;39.58;;;;;;;;;;5038464;28;20060;-58
2024/01/11 06:13:42;;;;;;;108.60;39.92;;;;;;;;;;5038436;28;20591;-58
2024/01/11 06:16:07;;;;;;;84.05;29.90;;;;;;;;;;5036806;28;20448;-57
2024/01/11 06:18:33;;;;;;;123.22;39.25;;;;;;;;;;5039164;28;20231;-58
2024/01/11 06:20:58;;;;;;;98.30;38.20;;;;;;;;;;5046759;28;20032;-57
2024/01/11 06:23:24;;;;;;;98.18;40.20;;;;;;;;;;5040052;28;20028;-55
2024/01/11 06:25:49;;;;;;;131.90;40.65;;;;;;;;;;5037662;28;20039;-57
2024/01/11 06:28:14;;;;;;;108.20;36.22;;;;;;;;;;5039556;28;20094;-58
2024/01/11 06:30:40;;;;;;;116.20;39.85;;;;;;;;;;5039955;28;20025;-57
2024/01/11 06:33:05;;;;;;;114.30;37.63;;;;;;;;;;5038859;28;20588;-56
2024/01/11 06:35:31;;;;;;;104.30;35.40;;;;;;;;;;5039637;28;20051;-54
2024/01/11 06:37:56;;;;;;;127.47;38.97;;;;;;;;;;5044063;28;20036;-57
2024/01/11 06:40:21;;;;;;;115.32;39.17;;;;;;;;;;5046544;28;20039;-58
2024/01/11 06:42:46;;;;;;;124.88;38.47;;;;;;;;;;5039096;28;20020;-58
2024/01/11 06:45:12;;;;;;;103.40;36.92;;;;;;;;;;5039433;28;20123;-57
2024/01/11 06:47:37;;;;;;;110.13;42.83;;;;;;;;;;5042499;28;20108;-57
2024/01/11 06:50:03;;;;;;;102.97;39.45;;;;;;;;;;5038108;28;20028;-58
2024/01/11 06:52:28;;;;;;;101.18;38.40;;;;;;;;;;5041669;28;20016;-57
2024/01/11 06:54:53;;;;;;;124.38;42.67;;;;;;;;;;5041221;28;20211;-59
2024/01/11 06:57:18;;;;;;;116.95;43.35;;;;;;;;;;5040771;28;20063;-58
2024/01/11 06:59:46;;;;;;;150.85;45.83;;;;;;;;;;5040890;28;20033;-59
2024/01/11 07:02:11;;;;;;;118.38;43.10;;;;;;;;;;5049119;28;20459;-60
2024/01/11 07:04:37;;;;;;;110.57;40.75;;;;;;;;;;5048669;28;20926;-59
2024/01/11 07:07:04;;;;;;;112.40;44.30;;;;;;;;;;5049135;28;20890;-59
2024/01/11 07:09:29;;;;;;;130.05;45.67;;;;;;;;;;5032318;28;20024;-58
2024/01/11 07:11:55;;;;;;;119.30;43.72;;;;;;;;;;5032271;28;20056;-58
2024/01/11 07:14:20;;;;;;;114.93;43.80;;;;;;;;;;5028824;28;20036;-58
2024/01/11 07:16:45;;;;;;;139.82;50.50;;;;;;;;;;5030350;28;20028;-59
2024/01/11 07:19:11;;;;;;;130.57;47.20;;;;;;;;;;5037421;28;20039;-54
2024/01/11 07:21:36;;;;;;;131.70;45.03;;;;;;;;;;5040705;28;20039;-58
2024/01/11 07:24:01;;;;;;;119.63;46.08;;;;;;;;;;5041836;28;20120;-61
2024/01/11 07:26:27;;;;;;;104.25;41.28;;;;;;;;;;5039605;28;20045;-54
2024/01/11 07:28:54;;;;;;;107.35;42.53;;;;;;;;;;5040592;28;20043;-56
2024/01/11 07:31:20;;;;;;;95.35;39.13;;;;;;;;;;5033811;28;20032;-55
2024/01/11 07:33:45;;;;;;;96.57;39.38;;;;;;;;;;5034385;28;20598;-54
2024/01/11 07:36:11;;;;;;;95.85;39.45;;;;;;;;;;5035300;28;20053;-57
2024/01/11 07:38:36;;;;;;;93.68;39.92;;;;;;;;;;5036140;28;20532;-56
2024/01/11 07:41:01;;;;;;;86.63;36.22;;;;;;;;;;5036401;28;20099;-56
2024/01/11 07:43:28;;;;;;;92.40;35.55;;;;;;;;;;5038328;28;20025;-58
2024/01/11 07:45:54;;;;;;;42.53;18.23;;;;;;;;;;5041301;28;20063;-54
2024/01/11 07:48:19;;;;;;;56.92;23.27;;;;;;;;;;5035542;28;20752;-55
2024/01/11 07:50:44;;;;;;;74.72;33.83;;;;;;;;;;5038935;28;20116;-56
2024/01/11 07:53:09;;;;;;;72.45;31.92;;;;;;;;;;5041702;28;20032;-57
2024/01/11 07:55:35;;;;;;;72.75;34.25;;;;;;;;;;5039042;28;20128;-61
2024/01/11 07:58:00;;;;;;;74.43;34.15;;;;;;;;;;5040195;28;21366;-63
2024/01/11 08:00:26;;;;;;;80.80;37.83;;;;;;;;;;5037469;28;20032;-61
2024/01/11 08:02:51;;;;;;;80.00;36.33;;;;;;;;;;5043217;28;20516;-58
2024/01/11 08:05:16;;;;;;;74.45;35.85;;;;;;;;;;5038977;28;20034;-63
2024/01/11 08:07:44;;;;;;;83.32;37.55;;;;;;;;;;5042666;28;20108;-62
2024/01/11 08:12:26;;;;;;;72.82;36.65;;;;;;;;;;5053406;27;20387;-61
2024/01/11 08:14:51;;;;;;;76.15;37.55;;;;;;;;;;5051891;28;20941;-62
2024/01/11 08:17:17;;;;;;;58.92;26.27;;;;;;;;;;5052724;28;20024;-61
2024/01/11 08:19:42;;;;;;;67.78;34.53;;;;;;;;;;5049560;28;20025;-58
2024/01/11 08:22:08;;;;;;;69.18;34.25;;;;;;;;;;5050604;28;20489;-55
2024/01/11 08:24:35;;;;;;;70.13;33.65;;;;;;;;;;5047967;28;20032;-60
2024/01/11 08:27:00;;;;;;;72.75;34.55;;;;;;;;;;5048119;28;20054;-59
2024/01/11 08:29:25;;;;;;;67.55;34.60;;;;;;;;;;5041182;28;20111;-61
2024/01/11 08:31:51;;;;;;;68.22;34.22;;;;;;;;;;5043020;28;20058;-61
2024/01/11 08:34:16;;;;;;;69.18;33.42;;;;;;;;;;5077814;28;20036;-60
2024/01/11 08:36:42;;;;;;;61.15;31.20;;;;;;;;;;5050635;28;21701;-60
2024/01/11 08:39:08;;;;;;;63.85;31.48;;;;;;;;;;5057191;28;20032;-65
2024/01/11 08:41:33;;;;;;;69.05;32.30;;;;;;;;;;5076595;27;20517;-63
2024/01/11 08:43:59;;;;;;;58.75;31.35;;;;;;;;;;5046344;28;20036;-59
2024/01/11 08:46:27;;;;;;;62.17;31.10;;;;;;;;;;5048332;28;20028;-62
2024/01/11 08:48:54;;;;;;;61.85;32.15;;;;;;;;;;5048869;28;20029;-58
2024/01/11 08:51:19;;;;;;;62.08;30.55;;;;;;;;;;5045640;28;20413;-56
2024/01/11 08:53:45;;;;;;;61.95;30.70;;;;;;;;;;5049392;28;20028;-54
2024/01/11 08:56:10;;;;;;;67.47;32.38;;;;;;;;;;5057385;28;20536;-57
2024/01/11 08:58:36;;;;;;;63.60;31.02;;;;;;;;;;5063485;28;20454;-61
2024/01/11 09:01:01;;;;;;;65.30;32.13;;;;;;;;;;5059561;28;20020;-61
2024/01/11 09:03:27;;;;;;;65.40;32.50;;;;;;;;;;5059710;28;20029;-61
2024/01/11 09:05:52;;;;;;;65.50;32.58;;;;;;;;;;5044335;28;20127;-60
2024/01/11 09:08:17;;;;;;;61.75;31.73;;;;;;;;;;5041365;28;20380;-62
2024/01/11 09:10:43;;;;;;;58.72;30.42;;;;;;;;;;5039206;28;20059;-60
2024/01/11 09:13:08;;;;;;;59.38;31.67;;;;;;;;;;5041591;28;20557;-59
2024/01/11 09:15:33;;;;;;;60.40;30.77;;;;;;;;;;5042194;28;20086;-56
2024/01/11 09:18:02;;;;;;;59.10;30.20;;;;;;;;;;5047062;28;20450;-57
2024/01/11 09:20:28;;;;;;;62.25;31.08;;;;;;;;;;5046285;28;20037;-57
2024/01/11 09:22:53;;;;;;;61.97;31.70;;;;;;;;;;5039589;28;20294;-61
2024/01/11 09:25:18;;;;;;;57.42;25.45;;;;;;;;;;5034192;28;20112;-59
2024/01/11 09:27:43;;;;;;;57.72;32.33;;;;;;;;;;5034831;28;20048;-59
2024/01/11 09:30:09;;;;;;;66.38;31.15;;;;;;;;;;5031657;28;21250;-58
2024/01/11 09:32:35;;;;;;;62.08;28.70;;;;;;;;;;5032759;28;20032;-60
2024/01/11 09:35:00;;;;;;;53.35;27.65;;;;;;;;;;5030857;28;20630;-59
2024/01/11 09:37:25;;;;;;;55.33;28.75;;;;;;;;;;5030771;28;20458;-60
2024/01/11 09:39:51;;;;;;;53.85;29.70;;;;;;;;;;5049784;28;20120;-60
2024/01/11 09:42:18;;;;;;;52.00;26.98;;;;;;;;;;5034491;28;20039;-61
2024/01/11 09:47:02;;;;;;;51.47;26.95;;;;;;;;;;5037769;27;20577;-60
2024/01/11 09:49:29;;;;;;;51.20;27.13;;;;;;;;;;5032848;28;20438;-59
2024/01/11 09:51:56;;;;;;;50.28;27.95;;;;;;;;;;5033815;28;20132;-58
2024/01/11 09:54:22;;;;;;;50.28;26.30;;;;;;;;;;5033455;28;20033;-60
2024/01/11 09:56:49;;;;;;;46.70;24.80;;;;;;;;;;5044224;28;20017;-59
2024/01/11 09:59:17;;;;;;;50.58;25.73;;;;;;;;;;5038345;28;20021;-62
2024/01/11 10:01:42;;;;;;;54.42;26.83;;;;;;;;;;5034105;28;20040;-59
2024/01/11 10:04:07;;;;;;;53.60;25.63;;;;;;;;;;5035104;28;20024;-58
2024/01/11 10:06:34;;;;;;;45.78;25.13;;;;;;;;;;5098127;27;20049;-53
2024/01/11 10:08:59;;;;;;;50.25;25.25;;;;;;;;;;5035829;28;20107;-60
2024/01/11 10:11:24;;;;;;;43.92;24.40;;;;;;;;;;5034098;28;20093;-58
2024/01/11 10:13:55;;;;;;;51.42;25.85;;;;;;;;;;5035045;28;20040;-58
2024/01/11 10:16:21;;;;;;;44.63;23.75;;;;;;;;;;5027868;28;20052;-57
2024/01/11 10:18:47;;;;;;;48.78;23.90;;;;;;;;;;5033159;28;20033;-60
2024/01/11 10:21:12;;;;;;;48.00;23.92;;;;;;;;;;5034117;28;20499;-59
2024/01/11 10:23:38;;;;;;;45.13;23.58;;;;;;;;;;5034096;28;20393;-59
2024/01/11 10:26:04;;;;;;;44.70;23.40;;;;;;;;;;5032343;28;20033;-59
2024/01/11 10:28:29;;;;;;;37.95;21.38;;;;;;;;;;5034232;28;20507;-60
2024/01/11 10:30:55;;;;;;;39.08;21.92;;;;;;;;;;5033942;28;20036;-57
2024/01/11 10:33:21;;;;;;;40.72;20.42;;;;;;;;;;5021678;28;20040;-57
2024/01/11 10:35:48;;;;;;;40.78;20.90;;;;;;;;;;5040383;28;20029;-61
2024/01/11 10:38:14;;;;;;;35.58;19.98;;;;;;;;;;5041697;28;20075;-61
2024/01/11 10:40:40;;;;;;;39.92;19.90;;;;;;;;;;5043292;28;20036;-60
2024/01/11 10:43:11;;;;;;;38.90;20.13;;;;;;;;;;5034554;28;20036;-60
2024/01/11 10:45:38;;;;;;;32.85;17.95;;;;;;;;;;5039952;28;20041;-59
2024/01/11 10:50:25;;;;;;;34.97;19.73;;;;;;;;;;5066579;27;20365;-60
2024/01/11 10:52:56;;;;;;;40.10;19.48;;;;;;;;;;5068193;28;20111;-60
2024/01/11 10:55:22;;;;;;;36.38;18.50;;;;;;;;;;5065304;28;20062;-57
2024/01/11 10:57:48;;;;;;;36.65;19.60;;;;;;;;;;5068014;28;20024;-59
2024/01/11 11:00:13;;;;;;;34.38;18.55;;;;;;;;;;5065664;28;20040;-57
2024/01/11 11:02:39;;;;;;;35.33;19.70;;;;;;;;;;5072979;28;20091;-59
2024/01/11 11:05:05;;;;;;;29.52;16.17;;;;;;;;;;5066569;28;20544;-60
2024/01/11 11:07:34;;;;;;;28.65;15.57;;;;;;;;;;5067998;28;20145;-59
2024/01/11 11:14:40;;;;;;;29.27;16.90;;;;;;;;;;5016131;28;20411;-60
2024/01/11 11:17:05;;;;;;;31.40;15.75;;;;;;;;;;5016471;28;20037;-61
2024/01/11 11:19:31;;;;;;;30.13;15.90;;;;;;;;;;5014738;28;20059;-60
2024/01/11 11:21:56;;;;;;;28.63;15.10;;;;;;;;;;5023290;28;22125;-59
2024/01/11 11:24:21;;;;;;;33.53;15.32;;;;;;;;;;5013684;28;20506;-57
2024/01/11 11:26:47;;;;;;;29.00;16.98;;;;;;;;;;5013737;28;20375;-58
2024/01/11 11:29:14;;;;;;;26.95;14.73;;;;;;;;;;5016199;28;20398;-60
2024/01/11 11:31:45;;;;;;;28.10;15.07;;;;;;;;;;5015481;28;20037;-57
2024/01/11 11:34:11;;;;;;;31.13;15.70;;;;;;;;;;5015920;28;20146;-57
2024/01/11 11:36:36;;;;;;;32.65;15.77;;;;;;;;;;5014407;28;20037;-60
2024/01/11 11:39:02;;;;;;;30.90;16.15;;;;;;;;;;5014303;28;20801;-60
2024/01/11 11:41:30;;;;;;;29.38;15.45;;;;;;;;;;5014772;28;20144;-58
2024/01/11 11:44:00;;;;;;;31.27;15.77;;;;;;;;;;5017323;28;20660;-59
2024/01/11 11:46:25;;;;;;;32.38;15.65;;;;;;;;;;5019548;28;20127;-59
2024/01/11 11:48:51;;;;;;;36.38;16.08;;;;;;;;;;5014599;28;20454;-58
2024/01/11 11:51:18;;;;;;;31.85;15.73;;;;;;;;;;5015482;28;20412;-62
2024/01/11 11:53:43;;;;;;;30.67;15.98;;;;;;;;;;5014718;28;20397;-59
2024/01/11 11:56:16;;;;;;;27.83;13.88;;;;;;;;;;5012866;28;20479;-58
2024/01/11 11:58:45;;;;;;;35.50;16.40;;;;;;;;;;5015150;28;20048;-61
2024/01/11 12:01:10;;;;;;;31.93;15.67;;;;;;;;;;5009658;28;20033;-61
2024/01/11 12:03:37;;;;;;;33.15;15.60;;;;;;;;;;5013530;28;20449;-59
2024/01/11 12:06:03;;;;;;;27.98;14.98;;;;;;;;;;5011121;28;20108;-59
2024/01/11 12:08:28;;;;;;;33.40;15.68;;;;;;;;;;5012544;28;20035;-60
2024/01/11 12:10:53;;;;;;;34.78;15.60;;;;;;;;;;4991104;28;20040;-60
2024/01/11 12:13:19;;;;;;;34.85;15.50;;;;;;;;;;5006212;28;20089;-60
2024/01/11 12:15:44;;;;;;;29.70;14.68;;;;;;;;;;5003421;28;20030;-62
2024/01/11 12:20:33;;;;;;;34.65;16.77;;;;;;;;;;5046603;28;20433;-58
2024/01/11 12:22:59;;;;;;;34.65;15.40;;;;;;;;;;5046964;28;20043;-52
2024/01/11 12:25:25;;;;;;;32.67;16.15;;;;;;;;;;5040419;28;20060;-58
2024/01/11 12:27:50;;;;;;;34.30;15.82;;;;;;;;;;5046837;28;20036;-60
2024/01/11 12:30:18;;;;;;;32.67;15.82;;;;;;;;;;5041335;28;20096;-61
2024/01/11 12:32:43;;;;;;;31.90;15.00;;;;;;;;;;5042751;28;20587;-62
2024/01/11 12:35:09;;;;;;;30.42;15.52;;;;;;;;;;5041230;28;20032;-60
2024/01/11 12:37:34;;;;;;;32.28;15.10;;;;;;;;;;5050303;28;20024;-63
2024/01/11 12:40:00;;;;;;;23.55;12.75;;;;;;;;;;5052886;28;20032;-62
2024/01/11 12:42:26;;;;;;;24.67;12.90;;;;;;;;;;5048112;28;20051;-61
2024/01/11 12:44:52;;;;;;;30.23;12.45;;;;;;;;;;5046795;28;20099;-61
2024/01/11 12:47:18;;;;;;;31.92;12.30;;;;;;;;;;5053104;28;20210;-61
2024/01/11 12:49:46;;;;;;;24.50;12.13;;;;;;;;;;5048169;28;20907;-56
2024/01/11 12:52:20;;;;;;;23.98;11.93;;;;;;;;;;5050440;28;20119;-61
2024/01/11 12:54:46;;;;;;;22.08;11.55;;;;;;;;;;5045802;28;20033;-59
2024/01/11 12:57:12;;;;;;;20.30;10.60;;;;;;;;;;5048891;28;20094;-63
2024/01/11 12:59:39;;;;;;;25.73;12.75;;;;;;;;;;5046339;28;20036;-62
2024/01/11 13:02:05;;;;;;;28.00;12.80;;;;;;;;;;5052694;28;20047;-62
2024/01/11 13:04:30;;;;;;;26.00;12.93;;;;;;;;;;5046915;28;20710;-58
2024/01/11 13:06:55;;;;;;;25.85;12.40;;;;;;;;;;5048735;28;20496;-62
2024/01/11 13:09:21;;;;;;;27.73;13.15;;;;;;;;;;5036763;28;20638;-56
2024/01/11 13:11:46;;;;;;;28.15;12.90;;;;;;;;;;5046486;28;20115;-60
2024/01/11 13:14:18;;;;;;;28.00;12.18;;;;;;;;;;5044249;28;20036;-60
2024/01/11 13:16:43;;;;;;;32.47;13.95;;;;;;;;;;5043029;28;20021;-62
2024/01/11 13:19:10;;;;;;;28.90;14.32;;;;;;;;;;5047072;28;20048;-57
2024/01/11 13:21:36;;;;;;;28.98;13.85;;;;;;;;;;5045209;28;20036;-58
2024/01/11 13:24:02;;;;;;;36.83;14.05;;;;;;;;;;5040309;28;20171;-58
2024/01/11 13:26:27;;;;;;;34.35;14.68;;;;;;;;;;5035078;28;20020;-60
2024/01/11 13:28:52;;;;;;;33.95;14.77;;;;;;;;;;5041243;28;20182;-56
2024/01/11 13:31:18;;;;;;;28.05;14.52;;;;;;;;;;5032232;28;20033;-55
2024/01/11 13:33:43;;;;;;;37.25;14.95;;;;;;;;;;5034989;28;20079;-56
2024/01/11 13:36:09;;;;;;;31.55;13.60;;;;;;;;;;5031782;28;20414;-55
2024/01/11 13:38:34;;;;;;;34.03;15.45;;;;;;;;;;5034301;28;20672;-53
2024/01/11 13:40:59;;;;;;;33.65;15.50;;;;;;;;;;5035770;28;20039;-56
2024/01/11 13:43:24;;;;;;;29.70;15.00;;;;;;;;;;5036252;28;20032;-54
2024/01/11 13:45:50;;;;;;;33.88;14.95;;;;;;;;;;5044630;28;20121;-55
2024/01/11 13:48:15;;;;;;;28.83;14.40;;;;;;;;;;5033691;28;20032;-55
2024/01/11 13:50:40;;;;;;;33.00;14.27;;;;;;;;;;5033023;28;20028;-59
2024/01/11 13:53:06;;;;;;;28.73;13.48;;;;;;;;;;5037202;28;20511;-60
2024/01/11 13:55:37;;;;;;;36.00;15.65;;;;;;;;;;5033689;28;20691;-57
2024/01/11 13:58:03;;;;;;;39.92;16.42;;;;;;;;;;5030022;28;20036;-57
2024/01/11 14:00:29;;;;;;;30.27;13.93;;;;;;;;;;5029252;28;20452;-58
2024/01/11 14:02:54;;;;;;;32.08;14.55;;;;;;;;;;5036627;28;20559;-59
2024/01/11 14:05:19;;;;;;;45.33;16.80;;;;;;;;;;5031777;28;20037;-63
2024/01/11 14:07:45;;;;;;;69.15;15.90;;;;;;;;;;5032753;28;20546;-56
2024/01/11 14:10:13;;;;;;;30.10;12.98;;;;;;;;;;5032356;28;20222;-56
2024/01/11 14:12:39;;;;;;;27.75;12.88;;;;;;;;;;5036028;28;20025;-59
2024/01/11 14:15:06;;;;;;;29.58;12.32;;;;;;;;;;5031654;28;20071;-58